Time;durP1;ratioP1;P1;durP2;ratioP2;P2;SDS_P1;SDS_P2;PMS_P1;PMS_P2;Temp;Humidity;BMP_temperature;BMP_pressure;BME280_temperature;BME280_humidity;BME280_pressure;Samples;Min_cycle;Max_cycle;Signal;HPM_P1;HPM_P2
2021/07/19 00:01:40;;;;;;;24.70;13.43;;;;;;;25.52;69.23;99810.15;126326;1099;104221;-79
2021/07/19 00:04:11;;;;;;;24.07;14.07;;;;;;;25.46;69.12;99813.95;126252;1099;104258;-78
2021/07/19 00:06:41;;;;;;;24.93;13.73;;;;;;;25.40;69.51;99816.87;126293;1098;104156;-79
2021/07/19 00:09:12;;;;;;;22.13;13.57;;;;;;;25.37;69.09;99813.39;126320;1099;104204;-79
2021/07/19 00:11:43;;;;;;;24.43;13.17;;;;;;;25.38;69.79;99817.84;126341;1099;104168;-79
2021/07/19 00:14:15;;;;;;;24.83;13.47;;;;;;;25.36;69.76;99815.22;126352;1099;104208;-78
2021/07/19 00:16:45;;;;;;;21.43;12.63;;;;;;;25.30;70.11;99810.93;126145;1099;104182;-78
2021/07/19 00:19:16;;;;;;;25.03;14.10;;;;;;;25.29;69.76;99819.04;126342;1099;104197;-79
2021/07/19 00:21:47;;;;;;;22.43;12.87;;;;;;;25.26;69.84;99816.47;126329;1098;104213;-78
2021/07/19 00:24:18;;;;;;;23.87;14.13;;;;;;;25.27;70.29;99815.52;126365;1099;104643;-77
2021/07/19 00:26:50;;;;;;;23.43;13.67;;;;;;;25.26;70.21;99805.73;126231;1099;104144;-78
2021/07/19 00:29:20;;;;;;;24.47;13.10;;;;;;;25.23;70.37;99813.89;126327;1099;104328;-78
2021/07/19 00:31:51;;;;;;;24.85;13.55;;;;;;;25.18;70.75;99810.47;126334;1099;104621;-77
2021/07/19 00:34:23;;;;;;;25.33;13.03;;;;;;;25.14;70.82;99808.84;126308;1099;104242;-78
2021/07/19 00:36:55;;;;;;;25.07;13.50;;;;;;;25.11;70.98;99809.82;126314;1099;104162;-79
2021/07/19 00:39:27;;;;;;;24.13;13.30;;;;;;;25.08;70.42;99808.11;126350;1099;104220;-77
2021/07/19 00:41:58;;;;;;;23.53;12.17;;;;;;;25.10;70.84;99802.69;126303;1099;104280;-78
2021/07/19 00:44:29;;;;;;;24.45;13.80;;;;;;;25.12;70.48;99806.22;126288;1099;104172;-78
2021/07/19 00:47:00;;;;;;;23.33;12.67;;;;;;;25.13;70.62;99816.00;126263;1099;104348;-77
2021/07/19 00:49:35;;;;;;;22.87;12.97;;;;;;;25.14;70.87;99808.84;126336;1099;104293;-77
2021/07/19 00:52:07;;;;;;;24.03;12.80;;;;;;;25.14;70.65;99815.08;126343;1099;104142;-78
2021/07/19 00:54:43;;;;;;;22.43;12.87;;;;;;;25.15;70.90;99806.11;126326;1099;104143;-76
2021/07/19 00:57:18;;;;;;;24.27;13.37;;;;;;;25.14;70.92;99804.34;126261;1099;105258;-78
2021/07/19 00:59:53;;;;;;;25.73;12.90;;;;;;;25.12;70.67;99807.08;126351;1099;104158;-78
2021/07/19 01:02:27;;;;;;;21.90;13.10;;;;;;;25.09;70.89;99804.50;126362;1099;105283;-78
2021/07/19 01:05:00;;;;;;;24.65;13.40;;;;;;;25.04;70.94;99813.64;126351;1099;104143;-77
2021/07/19 01:07:32;;;;;;;22.58;12.20;;;;;;;25.01;71.04;99814.64;126215;1099;104344;-78
2021/07/19 01:10:08;;;;;;;24.27;13.32;;;;;;;24.99;70.45;99816.48;126335;1099;104194;-79
2021/07/19 01:12:40;;;;;;;22.77;12.47;;;;;;;24.98;70.82;99812.06;126279;1099;104223;-78
2021/07/19 01:15:13;;;;;;;24.00;13.53;;;;;;;24.96;71.28;99811.22;126368;1099;104226;-79
2021/07/19 01:17:46;;;;;;;22.57;13.67;;;;;;;24.92;71.40;99813.14;126305;1097;104188;-78
2021/07/19 01:20:18;;;;;;;22.63;13.40;;;;;;;24.87;71.12;99816.91;126310;1099;104143;-77
2021/07/19 01:26:23;;;;;;;26.53;13.47;;;;;;;24.80;71.52;99813.56;125207;1102;105562;-78
2021/07/19 01:28:56;;;;;;;23.07;13.67;;;;;;;24.78;71.79;99809.16;125200;1102;104277;-77
2021/07/19 01:31:31;;;;;;;23.80;14.87;;;;;;;24.72;72.23;99816.50;125185;1102;104142;-77
2021/07/19 01:34:06;;;;;;;24.80;13.33;;;;;;;24.67;72.48;99814.92;125164;1102;104678;-78
2021/07/19 01:36:40;;;;;;;22.47;13.43;;;;;;;24.60;71.65;99814.23;125136;1102;104402;-78
2021/07/19 01:39:28;;;;;;;26.27;14.03;;;;;;;24.55;71.91;99810.80;124959;1102;104267;-77
2021/07/19 01:42:02;;;;;;;23.07;13.07;;;;;;;24.54;72.37;99814.39;125142;1102;104144;-77
2021/07/19 01:44:36;;;;;;;25.37;14.13;;;;;;;24.51;72.41;99815.39;124959;1102;104195;-77
2021/07/19 01:47:09;;;;;;;23.90;13.30;;;;;;;24.51;72.86;99809.13;125147;1102;104153;-77
2021/07/19 01:49:43;;;;;;;24.30;13.30;;;;;;;24.48;72.55;99814.59;125035;1102;104313;-78
2021/07/19 01:52:16;;;;;;;24.40;13.30;;;;;;;24.47;72.82;99812.86;125048;1102;104155;-78
2021/07/19 01:54:49;;;;;;;22.30;13.57;;;;;;;24.41;72.59;99820.16;125063;1102;104197;-78
2021/07/19 01:57:20;;;;;;;22.00;13.97;;;;;;;24.37;72.80;99818.52;125161;1102;104158;-78
2021/07/19 01:59:55;;;;;;;23.07;13.67;;;;;;;24.32;72.90;99815.08;125224;1102;104268;-77
2021/07/19 02:02:51;;;;;;;23.03;13.73;;;;;;;24.28;73.01;99812.55;125188;1102;104159;-77
2021/07/19 02:05:24;;;;;;;24.37;13.30;;;;;;;24.24;73.22;99811.78;125279;1102;104224;-78
2021/07/19 02:08:03;;;;;;;23.87;13.37;;;;;;;24.23;73.22;99816.27;125194;1102;108047;-78
2021/07/19 02:10:36;;;;;;;23.93;13.40;;;;;;;24.21;73.27;99817.23;125157;1102;104143;-78
2021/07/19 02:13:13;;;;;;;24.17;13.80;;;;;;;24.21;73.45;99809.20;125270;1102;104291;-77
2021/07/19 02:15:52;;;;;;;23.57;14.43;;;;;;;24.23;73.27;99820.73;125125;1102;105882;-78
2021/07/19 02:18:28;;;;;;;22.23;13.97;;;;;;;24.23;73.09;99821.64;125183;1102;104181;-77
2021/07/19 02:21:05;;;;;;;23.98;13.38;;;;;;;24.25;73.32;99823.37;125204;1102;104833;-77
2021/07/19 02:23:41;;;;;;;24.70;13.37;;;;;;;24.27;73.50;99826.90;125205;1103;104213;-78
2021/07/19 02:26:28;;;;;;;25.43;13.93;;;;;;;24.28;73.68;99828.63;125102;1102;104313;-78
2021/07/19 02:28:59;;;;;;;25.43;14.20;;;;;;;24.25;73.60;99824.27;125247;1102;104338;-77
2021/07/19 02:31:33;;;;;;;24.27;14.03;;;;;;;24.20;73.81;99824.41;125282;1102;104140;-78
2021/07/19 02:34:06;;;;;;;25.32;14.13;;;;;;;24.16;73.58;99829.91;125272;1102;104930;-78
2021/07/19 02:36:38;;;;;;;25.13;13.60;;;;;;;24.15;73.73;99822.79;125119;1102;104181;-77
2021/07/19 02:39:10;;;;;;;24.10;13.80;;;;;;;24.15;73.69;99822.79;125306;1102;104966;-76
2021/07/19 02:41:47;;;;;;;24.30;14.10;;;;;;;24.20;74.02;99827.09;125287;1102;104313;-78
2021/07/19 02:44:19;;;;;;;23.13;13.13;;;;;;;24.23;73.99;99828.77;125276;1102;104200;-78
2021/07/19 02:47:07;;;;;;;23.20;13.83;;;;;;;24.24;73.83;99827.86;125152;1102;104803;-77
2021/07/19 02:49:41;;;;;;;26.47;15.47;;;;;;;24.20;73.99;99835.13;125040;1102;104222;-77
2021/07/19 02:52:13;;;;;;;24.57;13.70;;;;;;;24.18;73.89;99826.27;125223;1102;104536;-76
2021/07/19 02:54:46;;;;;;;25.07;13.03;;;;;;;24.18;73.80;99828.95;125268;1102;104312;-79
2021/07/19 02:57:19;;;;;;;23.73;13.75;;;;;;;24.17;74.24;99831.68;125242;1102;104140;-79
2021/07/19 02:59:49;;;;;;;26.20;14.03;;;;;;;24.15;74.19;99826.37;125015;1102;104153;-77
2021/07/19 03:02:26;;;;;;;24.30;13.23;;;;;;;24.13;74.15;99828.20;125169;1102;104204;-77
2021/07/19 03:05:02;;;;;;;24.73;12.73;;;;;;;24.14;74.23;99823.73;125174;1102;104202;-77
2021/07/19 03:07:34;;;;;;;24.37;14.00;;;;;;;24.15;74.37;99825.47;125106;1102;105044;-77
2021/07/19 03:10:09;;;;;;;24.30;13.13;;;;;;;24.15;74.04;99830.83;125215;1102;104319;-78
2021/07/19 03:12:43;;;;;;;25.57;13.70;;;;;;;24.14;74.17;99831.77;125280;1102;104223;-79
2021/07/19 03:15:15;;;;;;;26.87;14.17;;;;;;;24.15;74.46;99833.51;125150;1102;104162;-77
2021/07/19 03:17:51;;;;;;;25.13;13.47;;;;;;;24.16;74.57;99829.91;125127;1102;104143;-77
2021/07/19 03:20:24;;;;;;;23.00;13.07;;;;;;;24.17;74.54;99826.32;125182;1102;104315;-77
2021/07/19 03:22:56;;;;;;;26.13;13.00;;;;;;;24.21;74.73;99838.68;125261;1102;104195;-77
2021/07/19 03:25:37;;;;;;;24.03;13.10;;;;;;;24.22;74.20;99845.80;125223;1102;104149;-77
2021/07/19 03:28:10;;;;;;;25.30;12.73;;;;;;;24.26;74.45;99847.45;125153;1102;104153;-78
2021/07/19 03:30:43;;;;;;;24.00;13.00;;;;;;;24.30;74.42;99841.08;125172;1102;104310;-78
2021/07/19 03:33:16;;;;;;;32.33;14.30;;;;;;;24.33;74.14;99840.98;125182;1102;104283;-78
2021/07/19 03:35:49;;;;;;;28.33;14.73;;;;;;;24.35;74.40;99843.61;125039;1102;104176;-77
2021/07/19 03:38:22;;;;;;;25.90;13.03;;;;;;;24.37;74.45;99849.80;125014;1102;104217;-79
2021/07/19 03:41:08;;;;;;;23.63;12.70;;;;;;;24.36;74.43;99848.92;125220;1102;104226;-77
2021/07/19 03:43:38;;;;;;;;;;;;;;;24.38;74.80;99849.74;125220;1102;104153;-77
2021/07/19 03:46:12;;;;;;;23.07;13.30;;;;;;;24.41;74.72;99846.97;125201;1101;104142;-77
2021/07/19 03:48:43;;;;;;;24.30;14.40;;;;;;;24.43;74.48;99851.41;125149;1102;104146;-77
2021/07/19 03:51:15;;;;;;;26.97;13.97;;;;;;;24.46;74.32;99849.50;125190;1102;104224;-78
2021/07/19 03:53:48;;;;;;;26.93;13.43;;;;;;;24.51;74.45;99852.03;125188;1102;104614;-77
2021/07/19 03:56:20;;;;;;;27.17;13.70;;;;;;;24.56;74.21;99860.83;125213;1102;104143;-77
2021/07/19 03:58:51;;;;;;;22.03;13.30;;;;;;;24.62;74.37;99860.67;124971;1102;104016;-76
2021/07/19 04:01:22;;;;;;;23.10;12.73;;;;;;;24.65;74.39;99857.89;125166;1102;104197;-75
2021/07/19 04:04:04;;;;;;;25.50;13.30;;;;;;;24.65;73.99;99865.94;125133;1102;104592;-76
2021/07/19 04:06:38;;;;;;;23.52;13.48;;;;;;;24.67;74.31;99861.39;125167;1102;104211;-76
2021/07/19 04:09:10;;;;;;;26.47;13.70;;;;;;;24.70;74.43;99861.29;125125;1102;104156;-78
2021/07/19 04:11:44;;;;;;;26.90;13.67;;;;;;;24.75;74.38;99863.82;125119;1102;104175;-76
2021/07/19 04:14:20;;;;;;;21.73;12.87;;;;;;;24.80;74.42;99858.30;125276;1102;104152;-79
2021/07/19 04:16:53;;;;;;;24.75;13.03;;;;;;;24.80;74.35;99867.22;125311;1102;104162;-78
2021/07/19 04:19:28;;;;;;;23.50;13.47;;;;;;;24.80;74.10;99866.35;125168;1102;104169;-77
2021/07/19 04:22:01;;;;;;;25.47;13.57;;;;;;;24.79;74.18;99860.09;125163;1102;104226;-78
2021/07/19 04:24:43;;;;;;;25.20;13.75;;;;;;;24.80;74.32;99866.35;125158;1102;104229;-76
2021/07/19 04:27:15;;;;;;;24.77;13.57;;;;;;;24.80;74.11;99861.85;125235;1102;104166;-76
2021/07/19 04:29:51;;;;;;;23.90;12.43;;;;;;;24.80;73.98;99866.35;125179;1102;104647;-77
2021/07/19 04:32:24;;;;;;;27.97;13.00;;;;;;;24.82;74.31;99861.80;125209;1102;104169;-76
2021/07/19 04:34:55;;;;;;;;;;;;;;;24.83;73.96;99855.52;125332;1102;104242;-78
2021/07/19 04:37:27;;;;;;;24.80;13.17;;;;;;;24.84;74.45;99862.62;125215;1102;104133;-78
2021/07/19 04:40:06;;;;;;;25.33;12.63;;;;;;;24.87;74.18;99870.56;125136;1102;104178;-77
2021/07/19 04:42:42;;;;;;;22.40;13.17;;;;;;;24.91;74.19;99850.77;125201;1102;104275;-78
2021/07/19 04:45:18;;;;;;;27.37;13.73;;;;;;;24.95;74.19;99863.16;125280;1102;104153;-75
2021/07/19 04:47:50;;;;;;;25.90;13.40;;;;;;;25.01;74.11;99860.27;125157;1102;104143;-76
2021/07/19 04:50:21;;;;;;;23.13;13.50;;;;;;;25.12;73.93;99865.27;125165;1102;104393;-76
2021/07/19 04:53:05;;;;;;;22.47;12.77;;;;;;;25.19;73.66;99860.55;124981;1105;104278;-77
2021/07/19 04:55:36;;;;;;;28.13;13.23;;;;;;;25.27;73.87;99859.38;125216;1102;104226;-76
2021/07/19 04:58:08;;;;;;;25.23;13.13;;;;;;;25.37;73.50;99859.05;125271;1102;104362;-76
2021/07/19 05:00:41;;;;;;;22.27;12.70;;;;;;;25.46;73.27;99864.09;124963;1105;104268;-76
2021/07/19 05:03:16;;;;;;;26.07;12.50;;;;;;;25.56;73.60;99865.52;124945;1105;104297;-76
2021/07/19 05:05:49;;;;;;;21.87;12.43;;;;;;;25.65;73.24;99865.19;124998;1105;104434;-77
2021/07/19 05:08:22;;;;;;;24.37;13.53;;;;;;;25.76;73.11;99867.48;124966;1105;104539;-77
2021/07/19 05:10:53;;;;;;;28.62;13.00;;;;;;;25.83;73.00;99868.98;124974;1105;104187;-77
2021/07/19 05:13:27;;;;;;;22.30;13.40;;;;;;;25.93;72.97;99861.48;125015;1105;104147;-77
2021/07/19 05:16:04;;;;;;;24.97;13.13;;;;;;;25.99;72.56;99869.34;124924;1105;104229;-76
2021/07/19 05:18:40;;;;;;;21.43;13.03;;;;;;;26.07;73.04;99866.36;124989;1105;104206;-75
2021/07/19 05:21:12;;;;;;;25.13;12.70;;;;;;;26.14;72.87;99867.85;124961;1105;104312;-76
2021/07/19 05:23:46;;;;;;;23.90;12.65;;;;;;;26.22;72.45;99869.38;125015;1105;104653;-76
2021/07/19 05:26:17;;;;;;;22.20;12.47;;;;;;;26.26;71.84;99869.20;124986;1106;104236;-77
2021/07/19 05:28:51;;;;;;;29.45;13.10;;;;;;;26.33;71.87;99865.34;124953;1105;104683;-77
2021/07/19 05:31:25;;;;;;;23.80;13.20;;;;;;;26.40;71.63;99874.04;124973;1105;104265;-77
2021/07/19 05:34:00;;;;;;;22.53;12.50;;;;;;;26.48;71.87;99868.35;125161;1102;104188;-78
2021/07/19 05:36:34;;;;;;;26.33;13.73;;;;;;;26.54;71.40;99868.97;125102;1102;104159;-77
2021/07/19 05:39:07;;;;;;;25.50;13.43;;;;;;;26.63;71.09;99867.73;125137;1102;104213;-76
2021/07/19 05:41:41;;;;;;;23.73;12.13;;;;;;;26.71;70.96;99872.84;124993;1102;104254;-76
2021/07/19 05:44:13;;;;;;;23.93;13.13;;;;;;;26.79;71.13;99870.70;125102;1102;104245;-78
2021/07/19 05:46:44;;;;;;;24.90;13.30;;;;;;;26.89;71.04;99863.11;125213;1102;104190;-79
2021/07/19 05:49:17;;;;;;;23.27;13.07;;;;;;;26.97;70.40;99869.03;125062;1102;104175;-79
2021/07/19 05:52:01;;;;;;;21.33;13.20;;;;;;;27.03;70.84;99863.39;125051;1101;104188;-79
2021/07/19 05:54:34;;;;;;;25.12;12.80;;;;;;;27.08;70.41;99874.86;125117;1101;104175;-79
2021/07/19 05:57:15;;;;;;;24.40;13.50;;;;;;;27.15;70.05;99871.91;125169;1102;104146;-80
2021/07/19 05:59:48;;;;;;;25.70;13.13;;;;;;;27.23;70.05;99875.13;125129;1102;104281;-78
2021/07/19 06:02:21;;;;;;;23.97;13.23;;;;;;;27.29;69.89;99874.00;125062;1102;104216;-81
2021/07/19 06:04:57;;;;;;;21.37;13.03;;;;;;;27.36;69.67;99871.01;125201;1102;104153;-80
2021/07/19 06:07:35;;;;;;;24.17;13.50;;;;;;;27.44;69.68;99873.34;125080;1102;104222;-82
2021/07/19 06:10:13;;;;;;;22.63;13.33;;;;;;;27.53;69.07;99872.06;125124;1102;104182;-80
2021/07/19 06:12:47;;;;;;;29.50;14.23;;;;;;;27.60;68.90;99877.11;125139;1102;110102;-78
2021/07/19 06:15:20;;;;;;;25.80;13.97;;;;;;;27.68;68.81;99881.30;125152;1102;104203;-78
2021/07/19 06:17:52;;;;;;;27.53;14.03;;;;;;;27.73;68.48;99865.78;125137;1102;104777;-80
2021/07/19 06:20:29;;;;;;;24.37;13.53;;;;;;;27.82;67.98;99865.36;124920;1102;104204;-80
2021/07/19 06:23:04;;;;;;;27.50;13.73;;;;;;;27.91;67.54;99870.33;125058;1102;104139;-80
2021/07/19 06:25:39;;;;;;;23.60;13.60;;;;;;;27.99;67.66;99872.70;124926;1102;104201;-78
2021/07/19 06:28:13;;;;;;;26.93;14.00;;;;;;;28.08;67.59;99874.08;124965;1102;104223;-79
2021/07/19 06:30:46;;;;;;;25.53;14.00;;;;;;;28.17;67.34;99872.78;125078;1102;104293;-78
2021/07/19 06:33:24;;;;;;;23.40;14.03;;;;;;;28.26;67.43;99875.05;125090;1102;107425;-77
2021/07/19 06:35:59;;;;;;;30.83;14.47;;;;;;;28.32;67.06;99875.62;125184;1102;104178;-80
2021/07/19 06:38:32;;;;;;;26.73;13.33;;;;;;;28.41;66.66;99871.61;125138;1102;104153;-79
2021/07/19 06:41:11;;;;;;;33.40;13.90;;;;;;;28.51;66.41;99874.73;125198;1102;104198;-79
2021/07/19 06:43:44;;;;;;;29.20;14.07;;;;;;;28.61;66.25;99870.68;125125;1102;118459;-78
2021/07/19 06:46:20;;;;;;;23.97;13.23;;;;;;;28.72;65.67;99871.95;125002;1102;104229;-79
2021/07/19 06:48:55;;;;;;;24.17;13.43;;;;;;;28.78;65.35;99866.25;125092;1102;104194;-77
2021/07/19 06:51:29;;;;;;;25.80;12.63;;;;;;;28.83;64.61;99861.52;125096;1102;104197;-77
2021/07/19 06:54:02;;;;;;;25.00;13.77;;;;;;;28.94;65.18;99863.67;125120;1102;104178;-78
2021/07/19 06:56:37;;;;;;;27.50;14.17;;;;;;;29.04;65.10;99865.80;125150;1102;104246;-78
2021/07/19 07:02:03;;;;;;;30.10;15.80;;;;;;;29.28;64.58;99857.44;124848;1103;104383;-79
2021/07/19 07:04:42;;;;;;;26.10;14.43;;;;;;;29.41;64.54;99857.66;124947;1101;104424;-78
2021/07/19 07:07:17;;;;;;;25.37;13.03;;;;;;;29.56;64.16;99861.36;124999;1102;104185;-77
2021/07/19 07:09:50;;;;;;;28.20;13.80;;;;;;;29.70;63.95;99860.62;124922;1102;104809;-77
2021/07/19 07:12:22;;;;;;;27.93;13.38;;;;;;;29.84;63.51;99862.61;124868;1105;104255;-77
2021/07/19 07:14:54;;;;;;;23.90;13.43;;;;;;;29.98;63.38;99857.34;124971;1103;104448;-78
2021/07/19 07:17:32;;;;;;;22.37;13.90;;;;;;;30.11;62.91;99863.80;124860;1106;104376;-77
2021/07/19 07:20:06;;;;;;;24.80;13.33;;;;;;;30.25;62.52;99864.87;124896;1105;104303;-78
2021/07/19 07:22:42;;;;;;;22.23;13.47;;;;;;;30.39;61.85;99856.87;124871;1106;104220;-78
2021/07/19 07:25:17;;;;;;;23.97;12.73;;;;;;;30.53;61.57;99866.05;124855;1105;104393;-78
2021/07/19 07:27:52;;;;;;;25.60;12.70;;;;;;;30.67;61.32;99860.70;124821;1105;104450;-78
2021/07/19 07:30:28;;;;;;;23.43;13.17;;;;;;;30.87;60.81;99866.77;124903;1105;104994;-79
2021/07/19 07:33:04;;;;;;;20.55;11.05;;;;;;;31.03;59.90;99864.94;124918;1105;104196;-78
2021/07/19 07:35:42;;;;;;;24.03;10.83;;;;;;;31.13;59.50;99871.53;124874;1105;104274;-77
2021/07/19 07:38:14;;;;;;;19.87;11.37;;;;;;;31.28;58.69;99860.76;124819;1105;104325;-77
2021/07/19 07:40:51;;;;;;;25.70;11.53;;;;;;;31.34;57.88;99872.09;124859;1102;104224;-77
2021/07/19 07:43:25;;;;;;;24.00;11.47;;;;;;;31.45;57.06;99874.14;124860;1102;104201;-78
2021/07/19 07:46:00;;;;;;;23.23;11.03;;;;;;;31.62;56.26;99872.25;125017;1102;104254;-79
2021/07/19 07:48:35;;;;;;;24.77;11.03;;;;;;;31.75;56.15;99865.10;125070;1102;104204;-78
2021/07/19 07:51:12;;;;;;;25.43;11.53;;;;;;;31.89;56.24;99867.81;126049;1099;104158;-79
2021/07/19 07:53:45;;;;;;;24.07;11.60;;;;;;;32.13;55.76;99864.53;125344;1099;104152;-80
2021/07/19 07:56:32;;;;;;;21.23;11.50;;;;;;;32.39;55.48;99864.69;126222;1099;104220;-81
2021/07/19 07:59:14;;;;;;;21.48;11.88;;;;;;;32.64;54.90;99863.97;126244;1099;104219;-80
2021/07/19 08:01:49;;;;;;;22.37;11.17;;;;;;;32.84;53.48;99867.21;125323;1099;104194;-83
2021/07/19 08:10:36;;;;;;;20.43;11.13;;;;;;;33.35;52.27;99863.76;125334;1099;104182;-79
2021/07/19 08:13:25;;;;;;;22.87;11.37;;;;;;;33.42;50.83;99873.23;125331;1103;104159;-79
2021/07/19 08:16:01;;;;;;;19.45;10.55;;;;;;;33.55;50.86;99868.70;125431;1099;119079;-79
2021/07/19 08:18:33;;;;;;;19.63;10.53;;;;;;;33.64;50.63;99865.33;125255;1099;104277;-77
2021/07/19 08:21:06;;;;;;;17.87;10.63;;;;;;;33.82;49.99;99865.02;126262;1099;104153;-78
2021/07/19 08:23:42;;;;;;;22.40;10.93;;;;;;;33.99;49.72;99864.67;125314;1099;104293;-80
2021/07/19 08:26:22;;;;;;;19.67;10.57;;;;;;;34.15;49.40;99863.55;125448;1099;104306;-78
2021/07/19 08:29:09;;;;;;;18.90;10.53;;;;;;;34.26;48.36;99860.94;126314;1099;104616;-80
2021/07/19 08:31:47;;;;;;;23.73;11.50;;;;;;;34.23;48.49;99866.58;125338;1099;104313;-79
2021/07/19 08:34:21;;;;;;;19.83;11.10;;;;;;;34.26;48.37;99858.22;125228;1099;105680;-79
2021/07/19 08:37:01;;;;;;;19.93;10.97;;;;;;;34.31;47.56;99858.73;125198;1102;104704;-79
2021/07/19 08:39:34;;;;;;;25.50;10.67;;;;;;;34.44;47.63;99852.38;126241;1099;104178;-79
2021/07/19 08:42:06;;;;;;;21.17;11.13;;;;;;;34.50;47.32;99846.48;126188;1099;104143;-78
2021/07/19 08:44:39;;;;;;;19.67;10.60;;;;;;;34.50;46.75;99841.03;125714;1099;104229;-80
2021/07/19 08:47:14;;;;;;;21.25;10.65;;;;;;;34.48;46.42;99830.25;125295;1102;104159;-79
2021/07/19 08:49:48;;;;;;;20.60;10.40;;;;;;;34.62;46.17;99836.53;125631;1099;104249;-77
2021/07/19 08:52:27;;;;;;;17.00;9.67;;;;;;;34.75;45.66;99834.66;125332;1102;104990;-79
2021/07/19 08:55:02;;;;;;;19.33;9.87;;;;;;;34.92;44.83;99839.68;126228;1099;104168;-76
2021/07/19 08:57:34;;;;;;;15.60;9.13;;;;;;;35.08;44.67;99847.53;125277;1100;104198;-80
2021/07/19 09:00:09;;;;;;;17.27;9.57;;;;;;;35.09;44.49;99849.28;125233;1102;104217;-79
2021/07/19 09:02:49;;;;;;;19.25;9.60;;;;;;;35.16;43.70;99843.36;125195;1102;104152;-78
2021/07/19 09:05:24;;;;;;;16.83;10.03;;;;;;;35.26;43.77;99847.12;125151;1101;105387;-78
2021/07/19 09:07:55;;;;;;;17.03;10.00;;;;;;;35.36;43.26;99848.15;124942;1102;104306;-76
2021/07/19 09:10:28;;;;;;;16.77;9.90;;;;;;;35.26;42.55;99849.84;125219;1102;104221;-78
2021/07/19 09:13:00;;;;;;;;;;;;;;;35.13;43.35;99843.59;125211;1102;104335;-77
2021/07/19 09:15:38;;;;;;;18.83;9.43;;;;;;;35.03;42.65;99847.03;125019;1102;105509;-78
2021/07/19 09:18:21;;;;;;;17.73;9.63;;;;;;;34.99;42.49;99841.94;124966;1102;104175;-79
2021/07/19 09:21:08;;;;;;;18.27;9.70;;;;;;;34.83;42.19;99836.77;125071;1102;104297;-79
2021/07/19 09:23:42;;;;;;;20.10;9.27;;;;;;;34.68;42.50;99833.34;125242;1102;104251;-78
2021/07/19 09:26:15;;;;;;;17.25;8.88;;;;;;;34.47;42.35;99830.37;125180;1102;104296;-79
2021/07/19 09:29:00;;;;;;;15.53;8.40;;;;;;;34.33;41.78;99828.67;125278;1102;104287;-81
2021/07/19 09:31:45;;;;;;;15.30;8.57;;;;;;;34.32;42.13;99822.37;125374;1099;105664;-81
2021/07/19 09:34:20;;;;;;;14.93;9.10;;;;;;;34.42;41.50;99813.52;125321;1099;104162;-78
2021/07/19 09:37:01;;;;;;;20.60;9.30;;;;;;;34.58;41.21;99816.83;125206;1099;105081;-78
2021/07/19 09:39:41;;;;;;;14.53;8.97;;;;;;;34.70;41.15;99809.56;126228;1099;104312;-78
2021/07/19 09:42:16;;;;;;;23.97;9.40;;;;;;;34.79;40.41;99818.94;125769;1099;104173;-78
2021/07/19 09:44:54;;;;;;;14.77;8.67;;;;;;;34.83;40.50;99814.97;126216;1099;104760;-78
2021/07/19 09:47:40;;;;;;;15.83;8.97;;;;;;;35.01;40.52;99810.83;126223;1099;104198;-78
2021/07/19 09:50:16;;;;;;;18.13;9.23;;;;;;;35.06;40.09;99815.92;126252;1099;104150;-78
2021/07/19 09:52:49;;;;;;;18.30;9.77;;;;;;;35.22;40.20;99821.92;126265;1099;104156;-79
2021/07/19 09:55:26;;;;;;;17.63;9.73;;;;;;;35.26;39.94;99820.73;125338;1099;104239;-79
2021/07/19 09:58:00;;;;;;;15.37;9.30;;;;;;;35.22;39.81;99815.61;126015;1099;104159;-80
2021/07/19 10:00:35;;;;;;;18.37;9.70;;;;;;;35.19;40.08;99818.58;126043;1099;104163;-77
2021/07/19 10:03:17;;;;;;;18.27;9.43;;;;;;;35.16;40.12;99827.00;126192;1099;104331;-77
2021/07/19 10:05:51;;;;;;;17.70;8.90;;;;;;;35.18;39.88;99825.87;126213;1099;104236;-79
2021/07/19 10:08:26;;;;;;;18.10;9.73;;;;;;;35.27;39.84;99837.95;126217;1099;109489;-78
2021/07/19 10:11:03;;;;;;;16.70;9.63;;;;;;;35.16;39.30;99833.31;126272;1098;104162;-79
2021/07/19 10:13:39;;;;;;;15.67;9.40;;;;;;;34.97;39.14;99847.50;125307;1099;104229;-80
2021/07/19 10:16:12;;;;;;;18.93;9.47;;;;;;;34.70;39.38;99854.05;126013;1099;104476;-78
2021/07/19 10:18:46;;;;;;;26.07;9.17;;;;;;;34.06;40.35;99861.50;125972;1099;104207;-78
2021/07/19 10:21:18;;;;;;;26.93;9.60;;;;;;;33.44;41.48;99873.99;125214;1099;104284;-79
2021/07/19 10:23:50;;;;;;;26.83;9.67;;;;;;;33.00;41.98;99858.89;125998;1099;104198;-80
2021/07/19 10:26:21;;;;;;;19.63;9.27;;;;;;;32.75;42.46;99855.11;125303;1099;104192;-80
2021/07/19 10:28:54;;;;;;;22.65;9.35;;;;;;;32.55;43.01;99851.86;126091;1099;107607;-79
2021/07/19 10:31:29;;;;;;;18.70;9.10;;;;;;;32.38;43.35;99854.80;125316;1102;104175;-79
2021/07/19 10:34:05;;;;;;;22.23;9.20;;;;;;;32.30;43.94;99859.86;126255;1099;104753;-80
2021/07/19 10:36:41;;;;;;;20.07;9.37;;;;;;;32.19;44.21;99864.13;125338;1102;104200;-80
2021/07/19 10:39:15;;;;;;;20.43;9.63;;;;;;;32.11;44.55;99860.19;125268;1099;120380;-80
2021/07/19 10:42:01;;;;;;;20.40;9.50;;;;;;;32.11;44.89;99857.48;126187;1099;104403;-80
2021/07/19 10:44:36;;;;;;;25.80;10.00;;;;;;;32.11;45.05;99863.77;126244;1099;104150;-79
2021/07/19 10:47:17;;;;;;;22.93;9.17;;;;;;;32.13;45.16;99864.53;125977;1099;104146;-79
2021/07/19 10:50:02;;;;;;;22.43;9.57;;;;;;;32.21;45.17;99858.61;126322;1099;104143;-78
2021/07/19 10:52:41;;;;;;;27.03;9.90;;;;;;;32.37;45.31;99850.36;125435;1099;104265;-79
2021/07/19 10:55:25;;;;;;;19.77;10.60;;;;;;;32.58;45.30;99842.63;125325;1099;104296;-78
2021/07/19 10:58:15;;;;;;;21.03;9.33;;;;;;;32.74;44.73;99839.77;126224;1099;104169;-78
2021/07/19 11:00:48;;;;;;;22.00;9.50;;;;;;;32.83;44.92;99833.72;125353;1102;104166;-78
2021/07/19 11:03:19;;;;;;;;;;;;;;;32.88;44.72;99833.41;126342;1099;104192;-79
2021/07/19 11:05:53;;;;;;;19.67;8.47;;;;;;;32.90;44.64;99832.34;126271;1099;104188;-78
2021/07/19 11:08:25;;;;;;;20.53;9.13;;;;;;;33.00;44.58;99837.15;126226;1099;104153;-79
2021/07/19 11:10:59;;;;;;;16.48;8.35;;;;;;;33.04;44.39;99839.55;126318;1099;104159;-80
2021/07/19 11:13:36;;;;;;;18.73;8.90;;;;;;;33.01;43.71;99837.05;126079;1099;104204;-80
2021/07/19 11:16:17;;;;;;;19.87;8.87;;;;;;;33.02;43.80;99835.19;126284;1099;104149;-79
2021/07/19 11:19:01;;;;;;;16.30;8.97;;;;;;;33.03;43.57;99835.08;126228;1099;104165;-78
2021/07/19 11:21:36;;;;;;;21.17;8.97;;;;;;;33.05;43.62;99826.83;126256;1099;104290;-78
2021/07/19 11:24:15;;;;;;;18.50;8.90;;;;;;;33.19;43.73;99829.48;126219;1099;104146;-79
2021/07/19 11:27:01;;;;;;;20.10;9.07;;;;;;;33.26;43.50;99819.08;126253;1099;104194;-81
2021/07/19 11:29:42;;;;;;;18.80;9.33;;;;;;;33.30;43.22;99823.30;126246;1099;104146;-78
2021/07/19 11:32:24;;;;;;;19.83;9.33;;;;;;;33.31;43.02;99798.72;126276;1099;104694;-79
2021/07/19 11:35:11;;;;;;;19.67;9.40;;;;;;;33.35;42.72;99798.51;126044;1099;104136;-79
2021/07/19 11:38:01;;;;;;;20.60;9.33;;;;;;;33.36;42.80;99792.95;126299;1099;104157;-81
2021/07/19 11:40:40;;;;;;;18.20;8.63;;;;;;;33.37;42.34;99793.85;126217;1099;110209;-81
2021/07/19 11:43:26;;;;;;;17.73;8.60;;;;;;;33.37;42.14;99791.13;126324;1098;104114;-80
2021/07/19 11:46:01;;;;;;;16.55;8.80;;;;;;;33.43;41.92;99797.00;126262;1099;104137;-79
2021/07/19 11:48:36;;;;;;;16.57;8.13;;;;;;;33.58;42.21;99795.05;126206;1099;104299;-78
2021/07/19 11:51:22;;;;;;;16.73;8.63;;;;;;;33.64;41.59;99802.77;126246;1099;104254;-78
2021/07/19 11:54:00;;;;;;;15.70;8.20;;;;;;;33.54;40.92;99793.52;126183;1099;104255;-81